createdAt,value
2023-08-25T00:01:30.670Z,20.55
2023-08-25T00:03:58.759Z,18.00
2023-08-25T00:06:25.425Z,19.42
2023-08-25T00:08:51.966Z,17.50
2023-08-25T00:11:18.549Z,18.70
2023-08-25T00:13:45.371Z,18.38
2023-08-25T00:16:12.237Z,18.90
2023-08-25T00:18:38.990Z,18.50
2023-08-25T00:21:06.940Z,17.10
2023-08-25T00:23:33.476Z,20.38
2023-08-25T00:26:00.444Z,19.40
2023-08-25T00:28:27.255Z,17.83
2023-08-25T00:30:54.209Z,17.70
2023-08-25T00:33:20.875Z,20.10
2023-08-25T00:35:47.771Z,19.05
2023-08-25T00:38:16.888Z,18.48
2023-08-25T00:40:43.533Z,17.95
2023-08-25T00:43:10.163Z,18.95
2023-08-25T00:45:39.145Z,18.90
2023-08-25T00:48:06.600Z,21.80
2023-08-25T00:50:33.478Z,18.63
2023-08-25T00:53:01.184Z,18.75
2023-08-25T00:55:31.254Z,18.30
2023-08-25T00:57:59.501Z,17.20
2023-08-25T01:00:27.130Z,18.10
2023-08-25T01:02:54.731Z,17.92
2023-08-25T01:05:21.597Z,19.58
2023-08-25T01:07:49.077Z,16.30
2023-08-25T01:10:16.998Z,16.08
2023-08-25T01:12:56.045Z,16.23
2023-08-25T01:15:26.686Z,17.13
2023-08-25T01:17:58.814Z,19.92
2023-08-25T01:20:26.223Z,15.95
2023-08-25T01:22:58.525Z,17.58
2023-08-25T01:25:27.553Z,17.00
2023-08-25T01:27:54.873Z,16.13
2023-08-25T01:30:24.142Z,17.52
2023-08-25T01:32:50.845Z,18.08
2023-08-25T01:35:17.605Z,17.70
2023-08-25T01:37:49.421Z,16.08
2023-08-25T01:40:18.239Z,16.83
2023-08-25T01:42:47.141Z,15.55
2023-08-25T01:45:14.578Z,18.17
2023-08-25T01:47:41.414Z,16.25
2023-08-25T01:50:08.967Z,15.60
2023-08-25T01:52:35.546Z,15.80
2023-08-25T01:55:02.407Z,16.50
2023-08-25T01:57:30.537Z,15.30
2023-08-25T01:59:58.517Z,17.35
2023-08-25T02:02:25.197Z,16.15
2023-08-25T02:04:51.836Z,19.23
2023-08-25T02:07:18.517Z,17.42
2023-08-25T02:09:45.150Z,15.90
2023-08-25T02:12:11.699Z,15.77
2023-08-25T02:14:39.063Z,16.88
2023-08-25T02:17:07.014Z,19.02
2023-08-25T02:19:35.910Z,19.30
2023-08-25T02:22:02.501Z,19.75
2023-08-25T02:24:29.079Z,16.60
2023-08-25T02:26:55.655Z,18.73
2023-08-25T02:29:22.786Z,17.00
2023-08-25T02:31:49.477Z,18.10
2023-08-25T02:34:19.225Z,16.30
2023-08-25T02:36:46.902Z,17.77
2023-08-25T02:39:16.185Z,18.42
2023-08-25T02:41:43.049Z,17.35
2023-08-25T02:44:10.256Z,18.83
2023-08-25T02:46:38.549Z,16.00
2023-08-25T02:49:05.115Z,17.05
2023-08-25T02:51:33.133Z,16.73
2023-08-25T02:53:59.830Z,16.80
2023-08-25T02:56:26.682Z,16.00
2023-08-25T02:58:53.569Z,19.25
2023-08-25T03:01:20.179Z,17.80
2023-08-25T03:03:46.790Z,17.35
2023-08-25T03:06:14.184Z,17.70
2023-08-25T03:08:46.248Z,17.67
2023-08-25T03:11:14.349Z,17.27
2023-08-25T03:13:41.425Z,17.10
2023-08-25T03:16:09.536Z,16.90
2023-08-25T03:18:38.313Z,20.50
2023-08-25T03:21:05.794Z,19.02
2023-08-25T03:23:32.854Z,16.67
2023-08-25T03:26:03.121Z,20.20
2023-08-25T03:28:29.739Z,18.15
2023-08-25T03:30:56.573Z,18.77
2023-08-25T03:33:24.948Z,19.17
2023-08-25T03:35:52.278Z,17.25
2023-08-25T03:38:19.870Z,17.48
2023-08-25T03:40:47.209Z,17.48
2023-08-25T03:43:15.207Z,17.88
2023-08-25T03:45:41.743Z,18.65
2023-08-25T03:48:08.388Z,18.03
2023-08-25T03:50:34.966Z,19.20
2023-08-25T03:53:01.828Z,18.70
2023-08-25T03:55:28.415Z,16.42
2023-08-25T03:57:55.307Z,18.70
2023-08-25T04:00:23.791Z,18.13
2023-08-25T04:02:50.469Z,18.65
2023-08-25T04:05:17.099Z,18.83
2023-08-25T04:07:45.799Z,18.40
2023-08-25T04:10:12.436Z,16.67
2023-08-25T04:12:39.064Z,16.67
2023-08-25T04:15:06.052Z,17.08
2023-08-25T04:17:36.084Z,18.23
2023-08-25T04:20:03.695Z,16.10
2023-08-25T04:22:30.282Z,17.20
2023-08-25T04:24:59.498Z,17.80
2023-08-25T04:27:26.396Z,16.75
2023-08-25T04:29:53.707Z,19.40
2023-08-25T04:32:20.589Z,17.33
2023-08-25T04:34:50.453Z,18.73
2023-08-25T04:37:17.378Z,17.85
2023-08-25T04:39:43.973Z,16.58
2023-08-25T04:42:10.800Z,18.50
2023-08-25T04:44:37.469Z,19.77
2023-08-25T04:47:05.024Z,17.10
2023-08-25T04:59:24.889Z,15.40
2023-08-25T05:01:51.948Z,19.00
2023-08-25T05:04:18.746Z,18.17
2023-08-25T05:06:45.613Z,18.90
2023-08-25T05:09:13.196Z,18.67
2023-08-25T05:11:40.819Z,19.45
2023-08-25T05:14:08.919Z,20.15
2023-08-25T05:16:37.016Z,20.33
2023-08-25T05:19:10.384Z,19.98
2023-08-25T05:21:37.287Z,18.02
2023-08-25T05:24:16.490Z,21.75
2023-08-25T05:26:44.472Z,19.02
2023-08-25T05:29:11.095Z,20.80
2023-08-25T05:31:39.404Z,19.60
2023-08-25T05:34:30.020Z,18.55
2023-08-25T05:37:01.009Z,18.63
2023-08-25T05:39:28.289Z,20.05
2023-08-25T05:41:54.865Z,18.80
2023-08-25T05:44:21.548Z,19.70
2023-08-25T05:46:49.601Z,18.00
2023-08-25T05:49:18.260Z,17.88
2023-08-25T05:51:45.635Z,21.33
2023-08-25T05:54:13.828Z,19.10
2023-08-25T05:56:42.751Z,18.75
2023-08-25T05:59:09.317Z,18.35
2023-08-25T06:01:36.493Z,18.58
2023-08-25T06:04:05.007Z,19.05
2023-08-25T06:06:32.412Z,20.55
2023-08-25T06:08:58.980Z,18.55
2023-08-25T06:11:26.681Z,19.40
2023-08-25T06:13:53.389Z,19.23
2023-08-25T06:16:20.470Z,20.90
2023-08-25T06:18:47.046Z,19.10
2023-08-25T06:21:15.065Z,18.23
2023-08-25T06:23:41.622Z,17.95
2023-08-25T06:26:08.316Z,18.02
2023-08-25T06:28:35.043Z,18.63
2023-08-25T06:31:01.732Z,18.70
2023-08-25T06:33:31.329Z,18.08
2023-08-25T06:35:58.128Z,19.55
2023-08-25T06:38:26.065Z,17.90
2023-08-25T06:40:52.952Z,19.10
2023-08-25T06:43:19.620Z,20.42
2023-08-25T06:45:46.218Z,17.50
2023-08-25T06:48:12.782Z,19.02
2023-08-25T06:50:40.009Z,17.73
2023-08-25T06:53:08.724Z,17.45
2023-08-25T06:55:37.630Z,17.23
2023-08-25T06:58:07.626Z,18.45
2023-08-25T07:00:34.261Z,16.70
2023-08-25T07:03:03.098Z,18.65
2023-08-25T07:05:29.900Z,19.13
2023-08-25T07:07:56.647Z,17.98
2023-08-25T07:10:23.557Z,18.37
2023-08-25T07:12:51.609Z,18.92
2023-08-25T07:15:20.621Z,18.70
2023-08-25T07:17:48.498Z,16.83
2023-08-25T07:20:17.259Z,18.05
2023-08-25T07:22:44.234Z,18.08
2023-08-25T07:25:11.072Z,18.00
2023-08-25T07:27:37.673Z,19.57
2023-08-25T07:30:07.599Z,17.20
2023-08-25T07:32:34.470Z,17.90
2023-08-25T07:35:01.168Z,18.45
2023-08-25T07:37:27.906Z,18.50
2023-08-25T07:39:55.617Z,20.23
2023-08-25T07:42:23.966Z,19.92
2023-08-25T07:44:50.939Z,18.48
2023-08-25T07:47:19.297Z,17.95
2023-08-25T07:49:45.990Z,17.70
2023-08-25T07:52:12.596Z,18.20
2023-08-25T07:54:39.454Z,17.55
2023-08-25T07:57:06.408Z,16.65
2023-08-25T07:59:33.091Z,18.13
2023-08-25T08:02:00.150Z,18.30
2023-08-25T08:04:28.278Z,16.73
2023-08-25T08:06:56.643Z,16.80
2023-08-25T08:09:23.217Z,18.00
2023-08-25T08:11:50.095Z,18.30
2023-08-25T08:14:16.678Z,19.70
2023-08-25T08:16:43.343Z,16.85
2023-08-25T08:19:12.385Z,16.50
2023-08-25T08:21:40.366Z,17.87
2023-08-25T08:24:07.146Z,20.47
2023-08-25T08:26:33.710Z,17.65
2023-08-25T08:29:01.089Z,21.33
2023-08-25T08:31:28.402Z,23.60
2023-08-25T08:33:55.482Z,21.88
2023-08-25T08:36:22.067Z,20.75
2023-08-25T08:38:50.047Z,22.10
2023-08-25T08:41:18.355Z,21.80
2023-08-25T08:43:46.357Z,22.23
2023-08-25T08:46:17.383Z,20.00
2023-08-25T08:48:45.014Z,20.90
2023-08-25T08:51:15.000Z,21.80
2023-08-25T08:53:42.861Z,21.65
2023-08-25T08:56:11.181Z,22.90
2023-08-25T08:58:37.980Z,22.60
2023-08-25T09:01:05.111Z,23.80
2023-08-25T09:03:33.580Z,24.17
2023-08-25T09:06:04.290Z,22.85
2023-08-25T09:08:31.489Z,26.17
2023-08-25T09:10:59.628Z,26.80
2023-08-25T09:13:28.618Z,24.40
2023-08-25T09:15:56.216Z,23.70
2023-08-25T09:18:22.901Z,22.25
2023-08-25T09:20:50.135Z,25.33
2023-08-25T09:23:17.611Z,22.17
2023-08-25T09:25:44.252Z,22.60
2023-08-25T09:28:11.104Z,21.88
2023-08-25T09:30:40.142Z,19.08
2023-08-25T09:33:07.503Z,19.70
2023-08-25T09:35:34.642Z,18.48
2023-08-25T09:38:01.498Z,19.35
2023-08-25T09:40:31.118Z,18.90
2023-08-25T09:42:59.096Z,19.15
2023-08-25T09:45:27.366Z,19.05
2023-08-25T09:47:55.937Z,18.70
2023-08-25T09:50:22.995Z,19.88
2023-08-25T09:52:51.057Z,20.33
2023-08-25T09:55:19.292Z,18.77
2023-08-25T09:57:47.582Z,18.40
2023-08-25T10:00:16.081Z,18.90
2023-08-25T10:02:44.263Z,30.45
2023-08-25T10:05:14.133Z,19.67
2023-08-25T10:07:41.311Z,19.85
2023-08-25T10:10:08.826Z,19.60
2023-08-25T10:12:36.710Z,20.43
2023-08-25T10:15:04.594Z,21.30
2023-08-25T10:17:31.714Z,18.77
2023-08-25T10:20:02.200Z,18.80
2023-08-25T10:22:31.287Z,19.58
2023-08-25T10:25:01.123Z,18.73
2023-08-25T10:27:28.168Z,19.05
2023-08-25T10:29:55.089Z,20.80
2023-08-25T10:32:22.642Z,20.63
2023-08-25T10:34:53.782Z,20.17
2023-08-25T10:37:24.264Z,20.90
2023-08-25T10:39:57.143Z,20.80
2023-08-25T10:42:25.005Z,21.02
2023-08-25T10:44:56.050Z,21.88
2023-08-25T10:47:23.661Z,19.10
2023-08-25T10:49:53.270Z,19.77
2023-08-25T10:52:21.177Z,18.42
2023-08-25T10:54:53.472Z,23.80
2023-08-25T10:57:20.728Z,19.13
2023-08-25T10:59:52.671Z,19.73
2023-08-25T11:02:34.161Z,20.07
2023-08-25T11:05:21.105Z,20.87
2023-08-25T11:07:49.025Z,20.63
2023-08-25T11:10:22.917Z,19.57
2023-08-25T11:13:07.450Z,17.77
2023-08-25T11:15:36.854Z,21.83
2023-08-25T11:18:03.703Z,18.70
2023-08-25T11:20:30.642Z,19.40
2023-08-25T11:23:16.859Z,22.13
2023-08-25T11:25:46.224Z,24.60
2023-08-25T11:28:13.302Z,23.00
2023-08-25T11:30:41.270Z,20.50
2023-08-25T11:33:08.169Z,21.33
2023-08-25T11:35:35.889Z,24.60
2023-08-25T11:38:03.169Z,22.10
2023-08-25T11:40:31.854Z,20.80
2023-08-25T11:43:03.229Z,19.77
2023-08-25T11:45:30.061Z,20.27
2023-08-25T11:47:57.379Z,21.60
2023-08-25T11:50:25.285Z,21.60
2023-08-25T11:52:51.972Z,20.20
2023-08-25T11:55:18.984Z,19.20
2023-08-25T11:57:50.594Z,21.52
2023-08-25T12:00:20.276Z,19.70
2023-08-25T12:02:56.688Z,19.90
2023-08-25T12:05:23.630Z,18.90
2023-08-25T12:07:53.231Z,18.50
2023-08-25T12:10:21.300Z,19.58
2023-08-25T12:12:48.173Z,21.50
2023-08-25T12:15:17.136Z,20.27
2023-08-25T12:17:48.713Z,19.52
2023-08-25T12:20:16.532Z,20.70
2023-08-25T12:22:54.061Z,21.80
2023-08-25T12:25:20.985Z,22.15
2023-08-25T12:27:48.990Z,21.85
2023-08-25T12:30:15.553Z,22.23
2023-08-25T12:32:42.323Z,21.60
2023-08-25T12:35:10.877Z,20.67
2023-08-25T12:37:37.620Z,21.13
2023-08-25T12:40:06.459Z,20.20
2023-08-25T12:42:34.014Z,21.42
2023-08-25T12:45:00.618Z,21.02
2023-08-25T12:47:27.581Z,21.50
2023-08-25T12:49:54.870Z,20.70
2023-08-25T12:52:23.100Z,22.15
2023-08-25T12:54:50.026Z,19.48
2023-08-25T12:57:17.574Z,19.13
2023-08-25T12:59:44.309Z,18.47
2023-08-25T13:02:10.911Z,18.58
2023-08-25T13:04:37.562Z,18.40
2023-08-25T13:07:04.962Z,18.90
2023-08-25T13:09:33.213Z,19.10
2023-08-25T13:11:59.844Z,18.40
2023-08-25T13:14:27.004Z,17.65
2023-08-25T13:16:54.401Z,18.67
2023-08-25T13:19:21.008Z,17.40
2023-08-25T13:21:47.719Z,19.15
2023-08-25T13:24:14.292Z,18.83
2023-08-25T13:26:42.450Z,18.35
2023-08-25T13:29:09.239Z,16.65
2023-08-25T13:31:35.897Z,17.88
2023-08-25T13:34:02.582Z,17.20
2023-08-25T13:36:29.803Z,17.52
2023-08-25T13:38:56.615Z,16.73
2023-08-25T13:41:23.876Z,17.38
2023-08-25T13:43:51.938Z,16.20
2023-08-25T13:46:18.627Z,16.80
2023-08-25T13:48:45.264Z,15.70
2023-08-25T13:51:11.887Z,15.20
2023-08-25T13:53:39.346Z,16.15
2023-08-25T13:56:06.417Z,16.10
2023-08-25T13:58:33.870Z,16.47
2023-08-25T14:01:01.911Z,15.00
2023-08-25T14:03:28.837Z,16.20
2023-08-25T14:05:58.639Z,15.35
2023-08-25T14:08:28.267Z,15.35
2023-08-25T14:10:54.809Z,16.70
2023-08-25T14:13:21.962Z,15.70
2023-08-25T14:15:48.573Z,16.77
2023-08-25T14:18:16.704Z,16.85
2023-08-25T14:20:43.433Z,16.60
2023-08-25T14:23:10.633Z,16.15
2023-08-25T14:25:37.839Z,16.38
2023-08-25T14:28:07.727Z,16.00
2023-08-25T14:30:34.922Z,16.88
2023-08-25T14:33:01.640Z,16.83
2023-08-25T14:35:30.511Z,16.17
2023-08-25T14:37:57.156Z,16.05
2023-08-25T14:40:23.728Z,15.98
2023-08-25T14:42:51.900Z,18.60
2023-08-25T14:45:19.156Z,17.00
2023-08-25T14:47:45.885Z,16.63
2023-08-25T14:50:12.518Z,17.70
2023-08-25T14:52:40.457Z,18.23
2023-08-25T14:55:08.028Z,18.73
2023-08-25T14:57:34.771Z,16.70
2023-08-25T15:00:04.500Z,17.88
2023-08-25T15:02:31.273Z,21.20
2023-08-25T15:04:57.868Z,17.60
2023-08-25T15:07:24.492Z,19.95
2023-08-25T15:09:52.466Z,18.93
2023-08-25T15:12:19.139Z,18.52
2023-08-25T15:14:45.745Z,20.25
2023-08-25T15:17:12.355Z,18.17
2023-08-25T15:19:39.487Z,17.60
2023-08-25T15:22:06.264Z,18.67
2023-08-25T15:24:32.824Z,18.70
2023-08-25T15:27:01.021Z,19.20
2023-08-25T15:29:37.789Z,17.60
2023-08-25T15:32:13.904Z,19.33
2023-08-25T15:34:40.770Z,18.88
2023-08-25T15:37:07.448Z,17.60
2023-08-25T15:39:34.151Z,17.80
2023-08-25T15:42:02.262Z,17.90
2023-08-25T15:44:29.302Z,17.23
2023-08-25T15:46:56.109Z,16.70
2023-08-25T15:49:22.712Z,16.60
2023-08-25T15:51:49.344Z,17.85
2023-08-25T15:54:16.529Z,17.50
2023-08-25T15:56:43.139Z,16.73
2023-08-25T15:59:11.230Z,16.00
2023-08-25T16:01:37.773Z,15.80
2023-08-25T16:04:04.663Z,17.15
2023-08-25T16:06:31.304Z,15.50
2023-08-25T16:08:58.677Z,16.77
2023-08-25T16:11:25.382Z,15.93
2023-08-25T16:13:53.315Z,15.50
2023-08-25T16:16:21.497Z,15.57
2023-08-25T16:18:48.328Z,15.57
2023-08-25T16:21:15.220Z,16.20
2023-08-25T16:23:42.039Z,16.30
2023-08-25T16:26:12.058Z,16.02
2023-08-25T16:28:40.930Z,16.10
2023-08-25T16:31:11.534Z,16.40
2023-08-25T16:33:41.614Z,16.80
2023-08-25T16:36:09.160Z,16.70
2023-08-25T16:38:38.721Z,17.13
2023-08-25T16:41:05.435Z,16.85
2023-08-25T16:43:32.110Z,17.00
2023-08-25T16:45:58.880Z,15.95
2023-08-25T16:48:27.224Z,16.15
2023-08-25T16:50:55.317Z,18.17
2023-08-25T16:53:21.900Z,17.50
2023-08-25T16:55:49.209Z,16.80
2023-08-25T16:58:16.216Z,16.97
2023-08-25T17:00:43.210Z,19.65
2023-08-25T17:03:10.858Z,17.00
2023-08-25T17:05:37.553Z,16.70
2023-08-25T17:08:07.866Z,17.98
2023-08-25T17:10:35.126Z,15.90
2023-08-25T17:13:02.202Z,19.35
2023-08-25T17:15:31.984Z,20.83
2023-08-25T17:17:59.728Z,18.65
2023-08-25T17:20:26.409Z,20.40
2023-08-25T17:22:56.659Z,19.42
2023-08-25T17:25:24.814Z,20.42
2023-08-25T17:27:52.908Z,19.10
2023-08-25T17:30:19.618Z,18.60
2023-08-25T17:32:46.345Z,18.55
2023-08-25T17:35:13.128Z,18.00
2023-08-25T17:37:39.805Z,18.42
2023-08-25T17:40:07.029Z,17.63
2023-08-25T17:42:35.382Z,19.45
2023-08-25T17:45:02.128Z,17.38
2023-08-25T17:47:29.784Z,18.15
2023-08-25T17:49:56.592Z,17.20
2023-08-25T17:52:23.156Z,18.38
2023-08-25T17:54:50.647Z,19.02
2023-08-25T17:57:17.624Z,19.60
2023-08-25T17:59:45.810Z,18.20
2023-08-25T18:02:13.283Z,17.38
2023-08-25T18:04:40.099Z,18.92
2023-08-25T18:07:07.012Z,21.97
2023-08-25T18:09:33.785Z,17.92
2023-08-25T18:12:01.604Z,17.50
2023-08-25T18:14:28.432Z,17.65
2023-08-25T18:16:57.283Z,18.98
2023-08-25T18:19:23.923Z,18.35
2023-08-25T18:21:50.919Z,19.33
2023-08-25T18:24:17.659Z,17.15
2023-08-25T18:26:44.961Z,21.23
2023-08-25T18:29:12.044Z,17.10
2023-08-25T18:31:40.023Z,16.98
2023-08-25T18:34:08.146Z,17.23
2023-08-25T18:36:34.979Z,16.35
2023-08-25T18:39:02.183Z,18.60
2023-08-25T18:41:29.160Z,19.02
2023-08-25T18:43:55.770Z,17.53
2023-08-25T18:46:23.744Z,18.65
2023-08-25T18:48:50.871Z,17.27
2023-08-25T18:51:19.023Z,17.83
2023-08-25T18:53:45.734Z,17.70
2023-08-25T18:56:13.211Z,18.50
2023-08-25T18:58:39.846Z,18.85
2023-08-25T19:01:07.101Z,18.60
2023-08-25T19:03:33.818Z,17.77
2023-08-25T19:06:02.239Z,18.23
2023-08-25T19:08:30.275Z,19.17
2023-08-25T19:11:00.436Z,20.67
2023-08-25T19:13:27.468Z,17.17
2023-08-25T19:15:58.155Z,18.65
2023-08-25T19:18:24.885Z,19.30
2023-08-25T19:20:51.560Z,19.08
2023-08-25T19:23:18.170Z,20.30
2023-08-25T19:25:53.144Z,19.25
2023-08-25T19:28:19.721Z,19.73
2023-08-25T19:30:46.581Z,18.38
2023-08-25T19:33:13.453Z,19.15
2023-08-25T19:35:40.303Z,18.88
2023-08-25T19:38:07.082Z,18.13
2023-08-25T19:40:33.955Z,21.10
2023-08-25T19:43:02.169Z,19.63
2023-08-25T19:45:28.782Z,18.42
2023-08-25T19:47:56.345Z,19.00
2023-08-25T19:50:23.154Z,19.90
2023-08-25T19:52:49.783Z,19.27
2023-08-25T19:55:16.540Z,20.40
2023-08-25T19:57:43.570Z,19.70
2023-08-25T20:00:13.217Z,19.65
2023-08-25T20:02:39.960Z,22.08
2023-08-25T20:05:07.295Z,20.63
2023-08-25T20:07:34.297Z,21.80
2023-08-25T20:10:00.860Z,22.13
2023-08-25T20:12:27.674Z,19.98
2023-08-25T20:14:54.259Z,22.65
2023-08-25T20:17:24.782Z,22.67
2023-08-25T20:19:51.397Z,20.83
2023-08-25T20:22:18.112Z,23.30
2023-08-25T20:24:44.696Z,24.00
2023-08-25T20:27:12.514Z,20.00
2023-08-25T20:29:39.525Z,21.70
2023-08-25T20:32:06.935Z,21.85
2023-08-25T20:34:35.066Z,20.60
2023-08-25T20:37:01.702Z,22.70
2023-08-25T20:39:28.277Z,22.85
2023-08-25T20:41:55.303Z,23.08
2023-08-25T20:44:22.245Z,19.08
2023-08-25T20:46:49.502Z,23.50
2023-08-25T20:49:16.128Z,23.80
2023-08-25T20:51:44.430Z,22.07
2023-08-25T20:54:10.976Z,18.10
2023-08-25T20:56:37.638Z,18.93
2023-08-25T20:59:04.354Z,21.37
2023-08-25T21:01:31.094Z,23.33
2023-08-25T21:03:58.166Z,20.03
2023-08-25T21:06:26.906Z,18.60
2023-08-25T21:08:54.941Z,21.67
2023-08-25T21:11:21.696Z,19.80
2023-08-25T21:13:48.312Z,22.70
2023-08-25T21:16:16.491Z,25.23
2023-08-25T21:18:43.216Z,23.43
2023-08-25T21:21:10.651Z,23.43
2023-08-25T21:23:37.297Z,26.17
2023-08-25T21:26:05.299Z,20.20
2023-08-25T21:28:31.918Z,19.50
2023-08-25T21:30:59.422Z,20.80
2023-08-25T21:33:27.193Z,22.20
2023-08-25T21:35:53.819Z,20.53
2023-08-25T21:38:22.676Z,29.10
2023-08-25T21:40:49.330Z,25.47
2023-08-25T21:43:17.484Z,23.23
2023-08-25T21:45:46.929Z,24.30
2023-08-25T21:48:13.730Z,22.17
2023-08-25T21:50:40.707Z,22.97
2023-08-25T21:53:07.316Z,24.73
2023-08-25T21:55:34.311Z,28.80
2023-08-25T21:58:01.605Z,24.40
2023-08-25T22:00:29.732Z,26.52
2023-08-25T22:02:56.683Z,43.57
2023-08-25T22:05:23.683Z,21.33
2023-08-25T22:07:50.280Z,25.80
2023-08-25T22:10:17.114Z,22.27
2023-08-25T22:12:43.818Z,24.93
2023-08-25T22:15:10.823Z,21.93
2023-08-25T22:17:39.852Z,25.13
2023-08-25T22:34:52.249Z,23.83
2023-08-25T22:37:18.946Z,26.10
2023-08-25T22:39:45.653Z,30.67
2023-08-25T22:42:12.256Z,23.45
2023-08-25T22:44:38.826Z,21.30
2023-08-25T22:47:05.502Z,22.77
2023-08-25T22:49:32.028Z,25.90
2023-08-25T22:52:02.790Z,22.85
2023-08-25T22:54:29.669Z,22.60
2023-08-25T22:56:56.405Z,21.73
2023-08-25T23:04:20.180Z,22.23
2023-08-25T23:06:47.192Z,20.13
2023-08-25T23:11:48.153Z,20.30
2023-08-25T23:14:15.389Z,19.93
2023-08-25T23:16:41.957Z,24.73
2023-08-25T23:19:08.534Z,21.45
2023-08-25T23:21:35.136Z,22.05
2023-08-25T23:48:28.837Z,19.93
2023-08-25T23:50:55.570Z,22.03
2023-08-25T23:53:22.278Z,27.35
2023-08-25T23:58:15.826Z,20.10
